Time;durP1;ratioP1;P1;durP2;ratioP2;P2;SDS_P1;SDS_P2;PMS_P1;PMS_P2;Temp;Humidity;BMP_temperature;BMP_pressure;BME280_temperature;BME280_humidity;BME280_pressure;Samples;Min_cycle;Max_cycle;Signal;HPM_P1;HPM_P2
2021/04/19 00:00:13;;;;;;;15.00;10.82;;;10.10;99.90;;;;;;6219738;23;20180;-81
2021/04/19 00:02:39;;;;;;;14.07;10.40;;;10.10;99.90;;;;;;6219192;23;20578;-81
2021/04/19 00:05:08;;;;;;;17.17;11.13;;;10.10;99.90;;;;;;6245622;23;20153;-79
2021/04/19 00:07:34;;;;;;;15.43;10.88;;;9.90;99.90;;;;;;6219042;23;20173;-81
2021/04/19 00:09:59;;;;;;;13.23;10.40;;;10.00;99.90;;;;;;6246166;23;20604;-80
2021/04/19 00:12:25;;;;;;;15.27;10.27;;;9.90;99.90;;;;;;6246073;23;20228;-81
2021/04/19 00:14:51;;;;;;;16.50;10.40;;;10.00;99.90;;;;;;6219228;23;20172;-80
2021/04/19 00:17:16;;;;;;;18.90;10.70;;;10.00;99.90;;;;;;6218890;23;20172;-84
2021/04/19 00:19:42;;;;;;;20.00;10.77;;;9.90;99.90;;;;;;6245867;23;20501;-80
2021/04/19 00:22:08;;;;;;;14.43;10.77;;;9.80;99.90;;;;;;6219352;23;20151;-80
2021/04/19 00:24:33;;;;;;;13.37;9.90;;;9.60;99.90;;;;;;6218827;23;20157;-80
2021/04/19 00:26:59;;;;;;;12.67;9.80;;;9.60;99.90;;;;;;6245845;22;20196;-81
2021/04/19 00:29:25;;;;;;;17.30;11.27;;;9.50;99.90;;;;;;6218974;23;20247;-80
2021/04/19 00:31:50;;;;;;;18.20;10.53;;;9.50;99.90;;;;;;6246162;23;20204;-80
2021/04/19 00:34:16;;;;;;;17.23;10.13;;;9.60;99.90;;;;;;6193978;23;20164;-80
2021/04/19 00:36:41;;;;;;;17.40;10.33;;;9.50;99.90;;;;;;6218719;23;20553;-80
2021/04/19 00:39:07;;;;;;;11.87;10.00;;;9.50;99.90;;;;;;6221145;23;20175;-81
2021/04/19 00:41:33;;;;;;;16.13;9.60;;;9.50;99.90;;;;;;6247910;23;20169;-80
2021/04/19 00:43:59;;;;;;;18.15;9.80;;;9.50;99.90;;;;;;6221297;23;20160;-80
2021/04/19 00:46:24;;;;;;;18.10;10.80;;;9.50;99.90;;;;;;6247498;22;20169;-81
2021/04/19 00:48:50;;;;;;;12.57;10.43;;;9.50;99.90;;;;;;6247858;23;20145;-79
2021/04/19 00:51:16;;;;;;;15.47;9.90;;;9.50;99.90;;;;;;6247823;23;20152;-78
2021/04/19 00:53:43;;;;;;;17.33;10.50;;;9.50;99.90;;;;;;6247792;23;20376;-79
2021/04/19 00:56:09;;;;;;;11.98;10.00;;;9.60;99.90;;;;;;6247379;22;20169;-79
2021/04/19 00:58:37;;;;;;;13.43;10.48;;;9.50;99.90;;;;;;6221171;23;20156;-79
2021/04/19 01:01:04;;;;;;;18.05;11.18;;;9.60;99.90;;;;;;6247722;23;20252;-80
2021/04/19 01:03:31;;;;;;;14.23;10.57;;;9.50;99.90;;;;;;6247887;23;20151;-78
2021/04/19 01:05:56;;;;;;;18.58;11.30;;;9.50;99.90;;;;;;6247209;22;20167;-79
2021/04/19 01:08:22;;;;;;;13.90;10.40;;;9.40;99.90;;;;;;6247728;23;20149;-79
2021/04/19 01:10:47;;;;;;;13.57;10.00;;;9.30;99.90;;;;;;6247646;23;20240;-79
2021/04/19 01:13:13;;;;;;;17.07;10.80;;;9.30;99.90;;;;;;6247704;23;20160;-79
2021/04/19 01:15:40;;;;;;;15.30;11.07;;;9.30;99.90;;;;;;6247043;22;20176;-79
2021/04/19 01:18:06;;;;;;;13.77;9.45;;;9.20;99.90;;;;;;6247647;23;20229;-79
2021/04/19 01:20:37;;;;;;;20.13;10.43;;;9.20;99.90;;;;;;6220741;23;20176;-79
2021/04/19 01:23:03;;;;;;;12.23;10.05;;;9.10;99.90;;;;;;6247760;23;20246;-78
2021/04/19 01:25:30;;;;;;;12.67;10.20;;;9.10;99.90;;;;;;6247053;22;20152;-79
2021/04/19 01:27:56;;;;;;;12.82;9.35;;;9.00;99.90;;;;;;6247374;23;20170;-79
2021/04/19 01:30:25;;;;;;;10.63;9.48;;;9.00;99.90;;;;;;6220597;23;20161;-79
2021/04/19 01:32:51;;;;;;;12.82;8.98;;;9.10;99.90;;;;;;6220605;23;20179;-79
2021/04/19 01:35:17;;;;;;;12.13;9.27;;;9.00;99.90;;;;;;6246996;22;20156;-79
2021/04/19 01:37:43;;;;;;;15.90;10.60;;;9.00;99.90;;;;;;6247359;23;20163;-79
2021/04/19 01:40:12;;;;;;;12.98;8.07;;;9.00;99.90;;;;;;6220437;23;20527;-78
2021/04/19 01:42:38;;;;;;;14.85;9.55;;;9.00;99.90;;;;;;6247353;23;20179;-78
2021/04/19 01:45:06;;;;;;;14.30;8.97;;;9.00;99.90;;;;;;6247102;23;20144;-79
2021/04/19 01:47:31;;;;;;;13.35;9.43;;;9.00;99.90;;;;;;6247550;22;20188;-79
2021/04/19 01:49:57;;;;;;;12.60;9.33;;;9.00;99.90;;;;;;6247288;23;20579;-79
2021/04/19 01:52:23;;;;;;;11.77;8.43;;;9.00;99.90;;;;;;6220578;23;20222;-79
2021/04/19 01:54:48;;;;;;;15.10;9.77;;;8.90;99.90;;;;;;6247154;23;20509;-78
2021/04/19 01:57:14;;;;;;;13.03;8.83;;;8.90;99.90;;;;;;6247152;22;20522;-81
2021/04/19 01:59:41;;;;;;;18.37;10.50;;;8.80;99.90;;;;;;6220581;23;20176;-78
2021/04/19 02:02:13;;;;;;;12.85;9.10;;;8.80;99.90;;;;;;6247179;23;20145;-80
2021/04/19 02:05:09;;;;;;;13.15;8.98;;;8.80;99.90;;;;;;6246864;23;20137;-79
2021/04/19 02:08:12;;;;;;;14.10;8.85;;;8.80;99.90;;;;;;6247397;22;20172;-79
2021/04/19 02:10:56;;;;;;;14.30;9.73;;;8.70;99.90;;;;;;6246976;23;20171;-79
2021/04/19 02:13:50;;;;;;;13.93;9.88;;;8.80;99.90;;;;;;6220264;23;20465;-78
2021/04/19 02:16:34;;;;;;;14.10;9.15;;;8.80;99.90;;;;;;6246444;22;20256;-79
2021/04/19 02:19:28;;;;;;;18.02;10.35;;;8.60;99.90;;;;;;6247110;23;20169;-79
2021/04/19 02:22:11;;;;;;;14.63;10.13;;;8.60;99.90;;;;;;6179403;23;20167;-79
2021/04/19 02:24:43;;;;;;;17.63;10.38;;;8.60;99.90;;;;;;6246482;23;20224;-79
2021/04/19 02:27:16;;;;;;;14.48;11.85;;;8.70;99.90;;;;;;6247058;22;20495;-79
2021/04/19 02:29:48;;;;;;;17.83;10.82;;;8.70;99.90;;;;;;6246997;23;20340;-79
2021/04/19 02:32:19;;;;;;;14.27;10.60;;;8.60;99.90;;;;;;6246939;23;20240;-80
2021/04/19 02:34:46;;;;;;;17.40;10.82;;;8.50;99.90;;;;;;6246499;23;20145;-80
2021/04/19 02:37:13;;;;;;;15.18;11.40;;;8.50;99.90;;;;;;6220400;23;20256;-79
2021/04/19 02:39:42;;;;;;;21.05;10.77;;;8.50;99.90;;;;;;6220111;23;20177;-79
2021/04/19 02:42:09;;;;;;;15.65;11.20;;;8.50;99.90;;;;;;6246904;23;20191;-78
2021/04/19 02:44:35;;;;;;;14.02;11.05;;;8.40;99.90;;;;;;6219559;23;20175;-79
2021/04/19 02:47:02;;;;;;;15.10;11.27;;;8.40;99.90;;;;;;6246779;22;20165;-78
2021/04/19 02:49:30;;;;;;;21.38;14.02;;;8.50;99.90;;;;;;6246729;23;20149;-79
2021/04/19 02:52:02;;;;;;;22.60;13.52;;;8.60;99.90;;;;;;6246839;23;20191;-80
2021/04/19 02:54:30;;;;;;;15.48;11.23;;;8.60;99.90;;;;;;6219736;23;20148;-80
2021/04/19 02:56:57;;;;;;;15.85;11.35;;;8.50;99.90;;;;;;6246553;22;20179;-79
2021/04/19 02:59:25;;;;;;;18.50;11.60;;;8.40;99.90;;;;;;6246485;23;20215;-79
2021/04/19 03:01:56;;;;;;;16.88;12.57;;;8.50;99.90;;;;;;6246404;23;20169;-79
2021/04/19 03:04:25;;;;;;;19.42;11.85;;;8.40;99.90;;;;;;6246681;23;20137;-79
2021/04/19 03:06:54;;;;;;;19.42;12.98;;;8.40;99.90;;;;;;6246431;22;20172;-79
2021/04/19 03:09:23;;;;;;;21.65;13.85;;;8.30;99.90;;;;;;6246627;23;20279;-80
2021/04/19 03:11:52;;;;;;;18.73;12.13;;;8.40;99.90;;;;;;6246625;23;20474;-80
2021/04/19 03:14:21;;;;;;;20.05;13.88;;;8.40;99.90;;;;;;6219516;23;20279;-79
2021/04/19 03:16:57;;;;;;;24.13;14.27;;;8.30;99.90;;;;;;6245972;22;20489;-79
2021/04/19 03:19:26;;;;;;;19.70;14.15;;;8.30;99.90;;;;;;6246502;23;20137;-79
2021/04/19 03:21:53;;;;;;;19.88;14.32;;;8.30;99.90;;;;;;6219508;23;20256;-79
2021/04/19 03:24:20;;;;;;;20.88;13.73;;;8.20;99.90;;;;;;6246408;23;20172;-79
2021/04/19 03:26:47;;;;;;;21.35;15.35;;;8.30;99.90;;;;;;6194255;23;20549;-79
2021/04/19 03:29:13;;;;;;;28.65;15.10;;;8.30;99.90;;;;;;6246509;23;20156;-79
2021/04/19 03:31:46;;;;;;;20.75;14.88;;;8.20;99.90;;;;;;6246376;23;20145;-79
2021/04/19 03:34:24;;;;;;;19.98;15.50;;;8.20;99.90;;;;;;6246392;23;20503;-79
2021/04/19 03:36:56;;;;;;;30.77;15.68;;;8.30;99.90;;;;;;6245905;22;20171;-79
2021/04/19 03:39:23;;;;;;;20.08;15.02;;;8.10;99.90;;;;;;6245964;23;20144;-78
2021/04/19 03:41:53;;;;;;;26.50;15.90;;;8.00;99.90;;;;;;6246208;23;20214;-79
2021/04/19 03:44:23;;;;;;;20.92;15.27;;;8.10;99.90;;;;;;6219763;23;20152;-79
2021/04/19 03:46:50;;;;;;;24.92;16.52;;;8.10;99.90;;;;;;6245823;22;20248;-79
2021/04/19 03:49:23;;;;;;;26.63;17.80;;;8.00;99.90;;;;;;6246012;23;20216;-79
2021/04/19 03:51:52;;;;;;;24.08;16.77;;;8.00;99.90;;;;;;6246463;23;20156;-78
2021/04/19 03:54:19;;;;;;;20.48;14.95;;;8.10;99.90;;;;;;6246366;23;20144;-79
2021/04/19 03:56:46;;;;;;;35.70;18.48;;;8.10;99.90;;;;;;6245731;22;20223;-79
2021/04/19 03:59:17;;;;;;;27.23;16.52;;;8.00;99.90;;;;;;6219222;23;20200;-79
2021/04/19 04:01:44;;;;;;;24.17;17.08;;;8.10;99.90;;;;;;6246178;23;20133;-80
2021/04/19 04:04:11;;;;;;;26.67;16.73;;;8.10;99.90;;;;;;6219464;23;20156;-79
2021/04/19 04:06:40;;;;;;;29.95;19.70;;;8.10;99.90;;;;;;6245603;22;20165;-79
2021/04/19 04:09:07;;;;;;;27.92;18.30;;;8.00;99.90;;;;;;6219862;23;20514;-79
2021/04/19 04:11:33;;;;;;;27.17;18.20;;;8.00;99.90;;;;;;6245779;23;20160;-80
2021/04/19 04:13:59;;;;;;;25.52;16.83;;;7.90;99.90;;;;;;6246178;23;20161;-80
2021/04/19 04:16:24;;;;;;;32.10;18.30;;;7.90;99.90;;;;;;6245564;22;20176;-80
2021/04/19 04:18:50;;;;;;;33.20;19.97;;;7.90;99.90;;;;;;6246031;23;20160;-79
2021/04/19 04:21:16;;;;;;;28.07;19.57;;;7.90;99.90;;;;;;6245945;23;20173;-78
2021/04/19 04:23:43;;;;;;;29.83;19.65;;;7.90;99.90;;;;;;6245996;23;20175;-79
2021/04/19 04:26:09;;;;;;;27.23;20.02;;;7.80;99.90;;;;;;6218707;23;20238;-80
2021/04/19 04:28:34;;;;;;;29.33;21.40;;;7.90;99.90;;;;;;6245824;23;20149;-79
2021/04/19 04:31:00;;;;;;;32.20;19.53;;;7.80;99.90;;;;;;6245747;23;20379;-78
2021/04/19 04:33:25;;;;;;;31.30;21.07;;;7.80;99.90;;;;;;6219100;23;20184;-79
2021/04/19 04:35:51;;;;;;;33.67;19.87;;;7.70;99.90;;;;;;6245523;22;20594;-79
2021/04/19 04:38:17;;;;;;;36.43;19.93;;;7.70;99.90;;;;;;6245948;23;20227;-79
2021/04/19 04:40:43;;;;;;;31.43;21.47;;;7.80;99.90;;;;;;6245487;23;20172;-79
2021/04/19 04:43:20;;;;;;;27.47;18.73;;;7.70;99.90;;;;;;6218947;23;20534;-80
2021/04/19 04:45:47;;;;;;;28.83;19.63;;;7.70;99.90;;;;;;6245554;22;20171;-78
2021/04/19 04:48:22;;;;;;;24.52;18.25;;;7.80;99.90;;;;;;6245787;23;20179;-79
2021/04/19 04:51:03;;;;;;;30.52;21.27;;;7.80;99.90;;;;;;6245721;23;20133;-78
2021/04/19 04:53:35;;;;;;;33.42;20.60;;;7.80;99.90;;;;;;6245802;23;20137;-79
2021/04/19 04:56:02;;;;;;;32.88;20.80;;;7.80;99.90;;;;;;6245681;22;20164;-78
2021/04/19 04:58:28;;;;;;;35.53;20.10;;;7.80;99.90;;;;;;6245835;23;20149;-79
2021/04/19 05:00:55;;;;;;;28.23;20.55;;;7.70;99.90;;;;;;6245729;23;20173;-80
2021/04/19 05:03:22;;;;;;;26.20;20.15;;;7.70;99.90;;;;;;6246230;23;20228;-79
2021/04/19 05:05:48;;;;;;;35.60;19.63;;;7.70;99.90;;;;;;6245685;22;20509;-80
2021/04/19 05:08:15;;;;;;;26.90;21.52;;;7.60;99.90;;;;;;6246112;23;20175;-81
2021/04/19 05:10:41;;;;;;;26.92;21.73;;;7.60;99.90;;;;;;6219567;23;20520;-79
2021/04/19 05:13:15;;;;;;;26.42;20.80;;;7.60;99.90;;;;;;6193476;23;20168;-80
2021/04/19 05:15:47;;;;;;;35.13;22.40;;;7.60;99.90;;;;;;6218252;23;20184;-80
2021/04/19 05:18:14;;;;;;;33.55;22.05;;;7.60;99.90;;;;;;6219713;23;20541;-80
2021/04/19 05:20:41;;;;;;;28.35;21.58;;;7.60;99.90;;;;;;6219016;23;20280;-80
2021/04/19 05:23:07;;;;;;;28.05;21.75;;;7.70;99.90;;;;;;6245846;23;20149;-80
2021/04/19 05:25:33;;;;;;;32.73;21.37;;;7.70;99.90;;;;;;6247122;22;20575;-81
2021/04/19 05:28:00;;;;;;;31.83;20.42;;;7.60;99.90;;;;;;6247460;23;20375;-79
2021/04/19 05:30:27;;;;;;;29.02;21.75;;;7.60;99.90;;;;;;6247489;23;20206;-79
2021/04/19 05:32:54;;;;;;;26.13;20.08;;;7.40;99.90;;;;;;6247316;23;20608;-78
2021/04/19 05:35:20;;;;;;;37.47;21.67;;;7.40;99.90;;;;;;6246921;22;20148;-79
2021/04/19 05:37:47;;;;;;;33.17;22.52;;;7.50;99.90;;;;;;6247273;23;20159;-79
2021/04/19 05:40:14;;;;;;;31.70;22.55;;;7.50;99.90;;;;;;6247222;23;20181;-78
2021/04/19 05:42:40;;;;;;;26.60;22.00;;;7.40;99.90;;;;;;6247358;23;20160;-79
2021/04/19 05:45:07;;;;;;;29.83;20.10;;;7.30;99.90;;;;;;6220393;23;20208;-77
2021/04/19 05:47:33;;;;;;;35.38;22.25;;;7.30;99.90;;;;;;6247108;22;20623;-78
2021/04/19 05:49:59;;;;;;;32.28;24.48;;;7.30;99.90;;;;;;6250106;23;20180;-81
2021/04/19 05:52:25;;;;;;;26.07;21.93;;;7.30;99.90;;;;;;6195101;23;20157;-82
2021/04/19 05:54:51;;;;;;;31.60;21.70;;;7.20;99.90;;;;;;6247262;23;20152;-82
2021/04/19 05:57:45;;;;;;;37.10;24.03;;;7.30;99.90;;;;;;6247253;22;20473;-85
2021/04/19 06:00:31;;;;;;;34.25;22.90;;;7.20;99.90;;;;;;6220280;23;20724;-84
2021/04/19 06:03:05;;;;;;;32.53;23.85;;;7.20;99.90;;;;;;6221006;23;20149;-85
2021/04/19 06:05:39;;;;;;;31.52;22.05;;;7.20;99.90;;;;;;6246898;22;20165;-85
2021/04/19 06:08:26;;;;;;;32.05;21.08;;;7.30;99.90;;;;;;6222004;23;20133;-85
2021/04/19 06:11:02;;;;;;;31.92;23.98;;;7.30;99.90;;;;;;6220182;23;20228;-84
2021/04/19 06:13:30;;;;;;;31.90;23.45;;;7.20;99.90;;;;;;6222402;23;20148;-81
2021/04/19 06:15:59;;;;;;;42.92;24.90;;;7.10;99.90;;;;;;6247285;22;20222;-81
2021/04/19 06:18:26;;;;;;;35.00;23.73;;;7.10;99.90;;;;;;6248051;23;20566;-82
2021/04/19 06:20:54;;;;;;;33.20;23.15;;;7.00;99.90;;;;;;6221242;23;20180;-83
2021/04/19 06:23:20;;;;;;;40.25;26.25;;;7.10;99.90;;;;;;6220256;23;20161;-82
2021/04/19 06:25:46;;;;;;;35.88;24.55;;;7.10;99.90;;;;;;6195161;23;20169;-81
2021/04/19 06:28:12;;;;;;;43.30;28.50;;;7.20;99.90;;;;;;6194793;23;20315;-87
2021/04/19 06:30:42;;;;;;;42.23;29.37;;;7.20;99.90;;;;;;6220334;23;20386;-83
2021/04/19 06:33:09;;;;;;;43.03;28.45;;;7.10;99.90;;;;;;6220137;23;20520;-82
2021/04/19 06:35:35;;;;;;;46.50;30.20;;;7.10;99.90;;;;;;6246278;22;20607;-82
2021/04/19 06:38:01;;;;;;;50.63;30.70;;;7.20;99.90;;;;;;6220023;23;20156;-81
2021/04/19 06:40:28;;;;;;;47.70;30.80;;;7.00;99.90;;;;;;6246355;23;20179;-79
2021/04/19 06:42:56;;;;;;;41.50;30.23;;;7.10;99.90;;;;;;6220149;23;20160;-80
2021/04/19 06:45:22;;;;;;;55.95;32.85;;;7.00;99.90;;;;;;6220185;22;20145;-82
2021/04/19 06:47:48;;;;;;;41.80;30.93;;;7.00;99.90;;;;;;6222442;23;20215;-82
2021/04/19 06:50:14;;;;;;;48.20;32.40;;;7.10;99.90;;;;;;6220579;23;20153;-80
2021/04/19 06:52:47;;;;;;;49.10;33.60;;;7.10;99.90;;;;;;6246786;23;20157;-82
2021/04/19 06:55:17;;;;;;;47.10;34.72;;;7.00;99.90;;;;;;6219341;22;20376;-79
2021/04/19 06:57:54;;;;;;;48.90;33.22;;;7.10;99.90;;;;;;6246998;23;20434;-79
2021/04/19 07:00:25;;;;;;;46.20;32.30;;;7.10;99.90;;;;;;6246382;23;20165;-81
2021/04/19 07:02:57;;;;;;;48.10;33.55;;;7.10;99.90;;;;;;6218643;23;20149;-79
2021/04/19 07:05:28;;;;;;;50.60;36.40;;;7.00;99.90;;;;;;6246030;22;20148;-82
2021/04/19 07:08:13;;;;;;;41.67;33.05;;;7.00;99.90;;;;;;6246569;23;20204;-81
2021/04/19 07:10:41;;;;;;;48.70;33.38;;;7.10;99.90;;;;;;6219462;23;20247;-79
2021/04/19 07:13:09;;;;;;;44.88;32.50;;;7.10;99.90;;;;;;6246750;23;20152;-80
2021/04/19 07:15:40;;;;;;;52.10;36.50;;;7.10;99.90;;;;;;6246011;22;20219;-81
2021/04/19 07:18:06;;;;;;;48.25;33.33;;;7.10;99.90;;;;;;6194512;23;20183;-81
2021/04/19 07:20:33;;;;;;;48.33;34.58;;;7.00;99.90;;;;;;6219681;23;20176;-80
2021/04/19 07:23:00;;;;;;;49.63;35.55;;;7.00;99.90;;;;;;6246325;23;20173;-80
2021/04/19 07:25:25;;;;;;;51.35;35.13;;;7.10;99.90;;;;;;6245918;22;20455;-80
2021/04/19 07:27:51;;;;;;;50.47;33.63;;;7.00;99.90;;;;;;6246307;23;20145;-80
2021/04/19 07:30:17;;;;;;;50.17;37.88;;;7.00;99.90;;;;;;6246204;23;20153;-81
2021/04/19 07:32:44;;;;;;;53.57;35.33;;;7.10;99.90;;;;;;6246162;23;20617;-80
2021/04/19 07:35:11;;;;;;;50.53;37.53;;;6.90;99.90;;;;;;6218843;23;20390;-78
2021/04/19 07:37:37;;;;;;;55.63;36.15;;;7.00;99.90;;;;;;6246043;23;20593;-80
2021/04/19 07:40:07;;;;;;;49.50;38.35;;;7.00;99.90;;;;;;6219171;23;20208;-78
2021/04/19 07:42:37;;;;;;;52.10;37.30;;;7.00;99.90;;;;;;6219428;23;20577;-79
2021/04/19 07:45:04;;;;;;;51.83;38.22;;;7.10;99.90;;;;;;6245762;23;20153;-78
2021/04/19 07:47:41;;;;;;;62.80;39.25;;;7.10;99.90;;;;;;6218998;23;20180;-80
2021/04/19 07:50:10;;;;;;;52.83;40.50;;;7.00;99.90;;;;;;6219382;23;20148;-79
2021/04/19 07:52:49;;;;;;;58.22;40.72;;;7.00;99.90;;;;;;6245938;23;20156;-79
2021/04/19 07:55:17;;;;;;;52.90;37.38;;;7.20;99.90;;;;;;6245643;22;20164;-77
2021/04/19 07:57:46;;;;;;;55.88;39.22;;;7.20;99.90;;;;;;6219155;23;20166;-80
2021/04/19 08:00:35;;;;;;;62.30;42.78;;;7.20;99.90;;;;;;6246168;23;20593;-78
2021/04/19 08:03:11;;;;;;;58.92;40.60;;;7.40;99.90;;;;;;6246273;23;20140;-79
2021/04/19 08:05:41;;;;;;;58.50;41.58;;;7.30;99.90;;;;;;6245450;22;20169;-79
2021/04/19 08:08:09;;;;;;;62.00;40.58;;;7.40;99.90;;;;;;6246032;23;20173;-78
2021/04/19 08:10:37;;;;;;;54.53;39.50;;;7.40;99.90;;;;;;6219256;23;20164;-80
2021/04/19 08:13:12;;;;;;;62.03;46.05;;;7.40;99.90;;;;;;6246009;23;20228;-79
2021/04/19 08:15:43;;;;;;;53.35;42.28;;;7.50;99.90;;;;;;6245631;22;20171;-80
2021/04/19 08:18:10;;;;;;;62.25;42.08;;;7.70;99.90;;;;;;6246080;23;20137;-81
2021/04/19 08:20:38;;;;;;;57.35;42.20;;;7.50;99.90;;;;;;6245766;23;20175;-79
2021/04/19 08:23:06;;;;;;;60.97;42.35;;;7.40;99.90;;;;;;6246144;23;20148;-78
2021/04/19 08:25:36;;;;;;;59.90;41.53;;;7.40;99.90;;;;;;6245463;22;20160;-78
2021/04/19 08:28:08;;;;;;;54.10;38.80;;;7.40;99.90;;;;;;6245894;23;20148;-78
2021/04/19 08:30:34;;;;;;;58.55;42.65;;;7.40;99.90;;;;;;6245918;23;20137;-80
2021/04/19 08:33:00;;;;;;;57.95;42.70;;;7.40;99.90;;;;;;6245861;23;20156;-79
2021/04/19 08:35:27;;;;;;;57.28;42.03;;;7.50;99.90;;;;;;6218570;22;20540;-79
2021/04/19 08:37:56;;;;;;;62.45;39.38;;;7.60;99.90;;;;;;6245884;23;20231;-80
2021/04/19 08:40:24;;;;;;;50.88;40.80;;;7.50;99.90;;;;;;6219514;23;20280;-80
2021/04/19 08:42:52;;;;;;;59.95;41.90;;;7.50;99.90;;;;;;6245875;23;20156;-79
2021/04/19 08:45:18;;;;;;;58.67;42.33;;;7.50;99.90;;;;;;6245133;22;20141;-78
2021/04/19 08:47:44;;;;;;;59.13;40.40;;;7.60;99.90;;;;;;6245899;23;20199;-80
2021/04/19 08:50:18;;;;;;;54.00;41.83;;;7.50;99.90;;;;;;6219171;23;20395;-78
2021/04/19 08:52:45;;;;;;;54.15;40.85;;;7.60;99.90;;;;;;6246037;23;20208;-80
2021/04/19 08:55:13;;;;;;;57.88;41.22;;;7.80;99.90;;;;;;6245076;22;20215;-79
2021/04/19 08:57:44;;;;;;;57.67;43.05;;;7.80;99.90;;;;;;6218896;23;20238;-78
2021/04/19 09:00:12;;;;;;;56.45;42.55;;;8.00;99.90;;;;;;6247591;23;20605;-80
2021/04/19 09:02:39;;;;;;;57.97;40.53;;;8.10;99.90;;;;;;6220951;23;20156;-79
2021/04/19 09:05:08;;;;;;;53.60;41.47;;;8.10;99.90;;;;;;6195404;23;20243;-79
2021/04/19 09:07:37;;;;;;;50.70;40.47;;;7.90;99.90;;;;;;6247413;22;20165;-80
2021/04/19 09:10:05;;;;;;;56.78;41.53;;;8.00;99.90;;;;;;6247608;23;20636;-80
2021/04/19 09:12:31;;;;;;;58.20;40.55;;;8.00;99.90;;;;;;6247625;23;20157;-81
2021/04/19 09:15:33;;;;;;;54.57;44.00;;;8.00;99.90;;;;;;6220345;23;20180;-78
2021/04/19 09:18:11;;;;;;;60.42;43.63;;;8.10;99.90;;;;;;6247880;23;20364;-82
2021/04/19 09:20:48;;;;;;;58.40;44.30;;;8.20;99.90;;;;;;6247454;23;20251;-81
2021/04/19 09:23:23;;;;;;;49.20;39.10;;;8.40;99.90;;;;;;6220808;23;20152;-80
2021/04/19 09:25:50;;;;;;;48.80;40.10;;;8.40;99.90;;;;;;6247029;22;20460;-81
2021/04/19 09:28:41;;;;;;;52.85;38.88;;;8.30;99.90;;;;;;6220972;23;20152;-80
2021/04/19 09:31:07;;;;;;;45.20;36.95;;;8.30;99.90;;;;;;6247585;23;20145;-81
2021/04/19 09:33:33;;;;;;;48.60;35.40;;;8.40;99.90;;;;;;6220953;23;20227;-82
2021/04/19 09:35:59;;;;;;;46.28;36.80;;;8.50;99.90;;;;;;6220207;23;20172;-81
2021/04/19 09:38:51;;;;;;;47.17;39.07;;;8.60;99.90;;;;;;6247306;23;20160;-83
2021/04/19 09:41:18;;;;;;;47.28;37.13;;;8.70;99.90;;;;;;6247069;23;20454;-81
2021/04/19 09:43:59;;;;;;;46.85;35.75;;;8.80;99.90;;;;;;6195335;23;20161;-82
2021/04/19 09:46:30;;;;;;;47.75;34.47;;;8.70;99.90;;;;;;6219899;23;20215;-82
2021/04/19 09:49:02;;;;;;;43.40;36.92;;;8.70;99.90;;;;;;6247337;23;20141;-81
2021/04/19 09:51:33;;;;;;;47.28;38.50;;;8.90;99.90;;;;;;6247406;23;20459;-82
2021/04/19 09:54:11;;;;;;;46.10;37.05;;;8.90;99.90;;;;;;6220270;23;20145;-84
2021/04/19 09:56:47;;;;;;;46.97;34.70;;;9.10;99.90;;;;;;6246809;22;20255;-82
2021/04/19 09:59:24;;;;;;;41.00;33.20;;;9.00;99.90;;;;;;6220387;23;20152;-83
2021/04/19 10:01:55;;;;;;;44.58;34.22;;;9.10;99.90;;;;;;6247148;23;20162;-83
2021/04/19 10:04:22;;;;;;;49.83;34.60;;;9.20;99.90;;;;;;6247096;23;20590;-84
2021/04/19 10:06:57;;;;;;;47.58;35.80;;;9.50;99.90;;;;;;6246710;22;20613;-82
2021/04/19 10:09:28;;;;;;;51.17;35.45;;;9.70;99.90;;;;;;6196084;23;20144;-86
2021/04/19 10:12:06;;;;;;;43.38;36.30;;;9.70;99.90;;;;;;6247496;23;20141;-83
2021/04/19 10:14:36;;;;;;;42.45;33.97;;;9.80;99.90;;;;;;6220209;23;20483;-85
2021/04/19 10:17:13;;;;;;;44.20;34.88;;;9.70;99.90;;;;;;6195507;23;20180;-84
2021/04/19 10:19:38;;;;;;;45.50;34.42;;;9.70;99.90;;;;;;6247219;23;20140;-84
2021/04/19 10:22:10;;;;;;;42.30;33.10;;;9.60;99.90;;;;;;6195440;23;20469;-86
2021/04/19 10:24:48;;;;;;;42.70;33.40;;;9.80;99.90;;;;;;6246839;23;20173;-86
2021/04/19 10:27:26;;;;;;;45.92;35.58;;;9.70;99.90;;;;;;6246976;22;20656;-83
2021/04/19 10:30:08;;;;;;;42.85;33.17;;;9.80;99.90;;;;;;6247262;23;20220;-86
2021/04/19 10:32:34;;;;;;;41.20;32.85;;;9.90;99.90;;;;;;6223428;23;20141;-86
2021/04/19 10:34:59;;;;;;;45.47;33.80;;;9.80;99.90;;;;;;6246743;23;20182;-84
2021/04/19 10:37:25;;;;;;;44.77;33.17;;;10.00;99.90;;;;;;6194773;23;20208;-86
2021/04/19 10:39:51;;;;;;;42.37;32.90;;;9.90;99.90;;;;;;6220257;23;20614;-86
2021/04/19 10:42:27;;;;;;;39.37;33.67;;;10.00;99.90;;;;;;6219904;23;20171;-88
2021/04/19 10:44:55;;;;;;;46.07;33.90;;;10.20;99.90;;;;;;6219989;23;20372;-88
2021/04/19 10:47:31;;;;;;;45.03;35.72;;;10.30;99.90;;;;;;6194903;23;20856;-84
2021/04/19 10:49:57;;;;;;;35.50;29.63;;;10.10;99.90;;;;;;6246944;23;20159;-84
2021/04/19 10:52:23;;;;;;;43.80;31.63;;;10.50;99.90;;;;;;6246808;23;20539;-85
2021/04/19 10:54:49;;;;;;;46.87;33.43;;;10.60;99.90;;;;;;6247173;23;20207;-86
2021/04/19 10:57:29;;;;;;;36.85;31.70;;;10.80;99.90;;;;;;6220455;23;20176;-83
2021/04/19 10:59:57;;;;;;;40.73;29.93;;;10.70;99.90;;;;;;6219756;23;20173;-84
2021/04/19 11:02:25;;;;;;;41.15;31.10;;;10.80;99.90;;;;;;6246663;23;20865;-82
2021/04/19 11:04:51;;;;;;;36.43;30.43;;;10.90;99.90;;;;;;6219835;23;20156;-86
2021/04/19 11:07:36;;;;;;;31.47;27.70;;;10.70;99.90;;;;;;6246829;22;20396;-85
2021/04/19 11:10:25;;;;;;;37.70;29.20;;;10.90;99.90;;;;;;6247139;23;20368;-86
2021/04/19 11:13:06;;;;;;;35.87;29.93;;;10.60;99.90;;;;;;6201597;23;20387;-84
2021/04/19 11:15:42;;;;;;;34.53;29.20;;;10.70;99.90;;;;;;6219236;22;20411;-86
2021/04/19 11:18:24;;;;;;;33.90;28.67;;;11.00;99.90;;;;;;6220206;23;20414;-83
2021/04/19 11:20:54;;;;;;;36.43;30.47;;;11.30;99.90;;;;;;6194775;23;20451;-84
2021/04/19 11:23:31;;;;;;;38.43;32.07;;;11.40;99.90;;;;;;6247104;23;20375;-84
2021/04/19 11:26:02;;;;;;;40.17;30.20;;;11.60;99.90;;;;;;6220072;23;20406;-87
2021/04/19 11:28:38;;;;;;;36.70;29.40;;;11.60;99.90;;;;;;6220080;23;20694;-86
2021/04/19 11:31:16;;;;;;;38.27;27.77;;;11.20;99.90;;;;;;6246922;23;20818;-87
2021/04/19 11:33:43;;;;;;;53.27;31.57;;;11.50;99.90;;;;;;6246982;23;20851;-86
2021/04/19 11:36:09;;;;;;;39.97;31.23;;;12.00;99.90;;;;;;6217073;23;20868;-87
2021/04/19 11:38:41;;;;;;;30.87;27.23;;;12.30;99.90;;;;;;6243173;23;20771;-88
2021/04/19 11:41:14;;;;;;;33.03;25.80;;;12.50;99.90;;;;;;6217738;23;20901;-85
2021/04/19 11:43:53;;;;;;;29.80;24.47;;;12.50;99.90;;;;;;6244189;23;20742;-87
2021/04/19 11:46:22;;;;;;;29.93;25.80;;;12.30;99.90;;;;;;6192058;23;20407;-87
2021/04/19 11:48:49;;;;;;;29.97;26.50;;;12.40;99.90;;;;;;6192702;23;20392;-86
2021/04/19 11:51:17;;;;;;;29.90;24.53;;;12.30;99.90;;;;;;6244449;23;20375;-86
2021/04/19 11:53:45;;;;;;;28.40;24.40;;;12.60;99.90;;;;;;6219091;23;20812;-87
2021/04/19 11:56:13;;;;;;;31.33;26.27;;;12.30;99.90;;;;;;6245847;22;20448;-88
2021/04/19 11:58:44;;;;;;;32.27;27.20;;;12.30;99.90;;;;;;6217433;23;20928;-88
2021/04/19 12:01:11;;;;;;;31.80;26.83;;;12.30;99.90;;;;;;6244971;23;20468;-87
2021/04/19 12:03:38;;;;;;;34.43;28.33;;;12.50;99.90;;;;;;6217361;23;20383;-81
2021/04/19 12:06:05;;;;;;;29.33;25.53;;;12.40;99.90;;;;;;6244178;22;20392;-84
2021/04/19 12:08:30;;;;;;;26.33;23.50;;;13.60;99.90;;;;;;6192362;23;20388;-84
2021/04/19 12:10:56;;;;;;;25.50;22.73;;;14.70;99.90;;;;;;6192651;23;20419;-82
2021/04/19 12:13:30;;;;;;;23.80;21.23;;;14.40;99.90;;;;;;6244334;23;20226;-87
2021/04/19 12:15:55;;;;;;;24.27;21.00;;;14.60;99.90;;;;;;6193963;23;20410;-84
2021/04/19 12:18:35;;;;;;;26.40;23.70;;;15.50;99.90;;;;;;6217879;23;20391;-87
2021/04/19 12:21:02;;;;;;;26.13;22.20;;;15.80;99.90;;;;;;6217375;23;20191;-85
2021/04/19 12:23:29;;;;;;;23.93;21.57;;;15.00;99.90;;;;;;6217307;23;20354;-86
2021/04/19 12:25:55;;;;;;;25.57;22.50;;;14.90;99.90;;;;;;6244510;22;20390;-85
2021/04/19 12:28:22;;;;;;;24.50;21.97;;;15.20;99.90;;;;;;6217482;23;21061;-86
2021/04/19 12:30:48;;;;;;;28.17;24.53;;;14.40;99.90;;;;;;6244894;23;20359;-88
2021/04/19 12:33:15;;;;;;;26.10;23.23;;;14.40;99.90;;;;;;6219268;23;20362;-83
2021/04/19 12:35:40;;;;;;;28.57;20.47;;;14.50;99.90;;;;;;6170314;23;20462;-82
2021/04/19 12:38:06;;;;;;;25.10;21.27;;;14.20;99.90;;;;;;6246423;23;20355;-84
2021/04/19 12:40:32;;;;;;;28.97;21.27;;;14.60;99.90;;;;;;6247473;23;20172;-84
2021/04/19 12:42:58;;;;;;;23.27;20.23;;;14.00;99.90;;;;;;6246525;23;20831;-85
2021/04/19 12:45:31;;;;;;;25.60;22.33;;;13.70;99.90;;;;;;6220599;22;20160;-81
2021/04/19 12:47:57;;;;;;;26.80;23.70;;;13.80;99.90;;;;;;6220576;23;20852;-82